gordon.dewis.ca - Random musings from Gordon

Subscribe

I. Can. Hardly. Wait.

February 17, 2008 @ 12:53 By: gordon Category: Current affairs, Weather

imageIt’s official: I’m sick of winter.  And so is almost everyone I know.

At 12:10 PM Eastern, Franktown radar, which is located between Smiths Falls and Carleton Place, is showing the leading edge of the freezing rain, snow, rain, frogs, ice pellets, and other charming weather that we’re going to be receiving this afternoon.

The aviation forecast for Ottawa is saying that we can expect the snow to start around 1 PM Eastern, followed by freezing rain that will probably start around 2 PM.  Around 6 PM it’s probably going to start raining.  And it’s going to be windy to boot.

TAF CYOW 171738Z 171818 06010KT 6SM -SN SCT020 OVC050 TEMPO 1819 2SM
-SN VV015
FM1900Z 08010G20KT 6SM -FZRA BR SCT008 OVC020 TEMPO 1923 2SM
-FZRA BR BKN008 OVC020
FM2300Z 16012G25KT 2SM -RA BR OVC006 TEMPO 2311 1/2SM -RA BR
VV002
BECMG 0507 20010KT
FM1100Z 23012G22KT 2SM -DZ BR OVC006 TEMPO 1114 6SM -RA BR SCT006
OVC012
FM1400Z 24015G25KT P6SM SCT020 TEMPO 1418 BKN020
RMK NXT FCST BY 21Z=

My lack of enthusiasm over this is overwhelming.  How about you?

One Response to “I. Can. Hardly. Wait.”


  1. Rev Rob says:

    Very nasty weather .. I do hope the “frogs” didn’t make too much of a mess 😉



Leave a Reply

*